SKIP

Details ICAO SKIP (IPI)
Name SAN LUIS
Region Colombia
Timezone America/Bogota (UTC-5.0)
Plans Departing 3
Arriving 0
Stats Elevation 9,765 ft / 2,976 m (AMSL)
Location 0.861925° -77.671762°
Runways 1
Magnetic Variation 4.245° W
Sunrise 2017-12-18 11:06:37 UTC / 2017-12-18 06:06:37 Local
Sunset 2017-12-18 23:10:54 UTC / 2017-12-18 18:10:54 Local
Advertisement - Login to hide

Runways

ID Width Length Bearing (true) Bearing (mag) Surface Threshold Offset Overrun Length
06 92 ft / 28 m 5,795 ft / 1,766 m 61.05° 65.30° Asphalt 0 ft / 0 m 0 ft / 0 m
24 92 ft / 28 m 5,795 ft / 1,766 m 241.05° 245.30° Asphalt 0 ft / 0 m 0 ft / 0 m

Map

Weather


0- 5 10 15 20 25 30 35+ Temperature / ° C

Clouds and Precipitation
Forecast for 2017-12-18 12:00 UTC. Updated 2 hours ago

Ground ~20,000 ft ~40,000 ft Winds

METAR

SKIP 181300Z 00000KT 9999 BKN018 08/07 A3041

TAF

Not found

Frequencies

Tower 118.30 MHz TWR
Approach 120.10 MHz ANDES APP
Warning: Do not use this data for real-world aviation or navigation. No guarantee of current accuracy is given.